createdAt,value
2019-03-09T00:02:14.212Z,3.82
2019-03-09T00:04:45.662Z,3.86
2019-03-09T00:07:16.390Z,3.77
2019-03-09T00:09:47.963Z,3.82
2019-03-09T00:12:18.858Z,3.71
2019-03-09T00:14:49.258Z,3.68
2019-03-09T00:17:19.564Z,3.62
2019-03-09T00:19:50.125Z,3.67
2019-03-09T00:22:21.885Z,3.62
2019-03-09T00:24:55.233Z,3.57
2019-03-09T00:27:30.355Z,3.54
2019-03-09T00:30:20.532Z,3.61
2019-03-09T00:32:51.267Z,3.62
2019-03-09T00:35:21.502Z,3.57
2019-03-09T00:37:51.789Z,3.57
2019-03-09T00:40:22.552Z,3.53
2019-03-09T00:42:53.251Z,3.48
2019-03-09T00:45:23.888Z,3.44
2019-03-09T00:47:54.573Z,3.42
2019-03-09T00:50:29.845Z,3.39
2019-03-09T00:53:00.317Z,3.37
2019-03-09T00:55:30.492Z,3.41
2019-03-09T00:58:01.224Z,3.44
2019-03-09T01:00:31.569Z,3.57
2019-03-09T01:03:02.172Z,3.56
2019-03-09T01:05:32.454Z,3.65
2019-03-09T01:08:02.659Z,3.71
2019-03-09T01:10:33.421Z,3.78
2019-03-09T01:13:03.946Z,3.87
2019-03-09T01:15:34.524Z,3.89
2019-03-09T01:18:05.369Z,3.91
2019-03-09T01:20:35.939Z,3.99
2019-03-09T01:23:06.685Z,3.99
2019-03-09T01:25:37.899Z,3.97
2019-03-09T01:28:08.560Z,4.00
2019-03-09T01:30:40.545Z,4.10
2019-03-09T01:33:11.375Z,4.10
2019-03-09T01:35:42.081Z,4.07
2019-03-09T01:38:12.481Z,4.04
2019-03-09T01:40:42.697Z,3.93
2019-03-09T01:43:13.057Z,3.84
2019-03-09T01:45:43.241Z,3.77
2019-03-09T01:48:13.533Z,3.72
2019-03-09T01:50:44.120Z,3.63
2019-03-09T01:53:14.495Z,3.59
2019-03-09T01:55:45.217Z,3.61
2019-03-09T01:58:16.377Z,3.52
2019-03-09T02:00:47.102Z,3.46
2019-03-09T02:03:17.447Z,3.36
2019-03-09T02:05:48.330Z,3.31
2019-03-09T02:08:18.886Z,3.28
2019-03-09T02:10:49.909Z,3.24
2019-03-09T02:13:20.228Z,3.20
2019-03-09T02:15:51.091Z,3.13
2019-03-09T02:18:21.777Z,3.05
2019-03-09T02:20:52.537Z,3.01
2019-03-09T02:23:23.173Z,2.99
2019-03-09T02:25:53.811Z,2.96
2019-03-09T02:28:24.463Z,2.92
2019-03-09T02:30:54.981Z,2.91
2019-03-09T02:33:25.598Z,2.90
2019-03-09T02:35:55.888Z,2.94
2019-03-09T02:38:43.358Z,2.96
2019-03-09T02:41:13.991Z,2.97
2019-03-09T02:43:44.644Z,2.99
2019-03-09T02:46:16.265Z,2.96
2019-03-09T02:48:48.801Z,2.96
2019-03-09T02:51:19.061Z,2.92
2019-03-09T02:53:49.296Z,2.90
2019-03-09T02:56:19.611Z,2.88
2019-03-09T02:58:50.119Z,2.84
2019-03-09T03:01:20.464Z,2.81
2019-03-09T03:03:51.390Z,2.75
2019-03-09T03:06:22.122Z,2.73
2019-03-09T03:08:53.016Z,2.72
2019-03-09T03:11:23.460Z,2.68
2019-03-09T03:13:53.693Z,2.65
2019-03-09T03:16:24.056Z,2.63
2019-03-09T03:18:54.814Z,2.63
2019-03-09T03:21:25.115Z,2.60
2019-03-09T03:23:55.678Z,2.61
2019-03-09T03:26:31.056Z,2.60
2019-03-09T03:29:01.768Z,2.63
2019-03-09T03:31:32.077Z,2.62
2019-03-09T03:34:02.680Z,2.69
2019-03-09T03:36:35.106Z,2.77
2019-03-09T03:39:07.791Z,2.87
2019-03-09T03:41:39.061Z,2.98
2019-03-09T03:44:12.543Z,3.10
2019-03-09T03:46:42.988Z,3.19
2019-03-09T03:49:15.286Z,3.23
2019-03-09T03:51:45.919Z,3.23
2019-03-09T03:54:16.606Z,3.21
2019-03-09T03:56:47.932Z,3.12
2019-03-09T03:59:18.677Z,3.04
2019-03-09T04:01:49.158Z,2.97
2019-03-09T04:04:19.966Z,2.89
2019-03-09T04:06:52.002Z,2.83
2019-03-09T04:09:22.635Z,2.75
2019-03-09T04:11:53.551Z,2.69
2019-03-09T04:14:24.558Z,2.63
2019-03-09T04:16:55.067Z,2.60
2019-03-09T04:19:25.323Z,2.58
2019-03-09T04:21:55.677Z,2.58
2019-03-09T04:24:26.296Z,2.54
2019-03-09T04:26:57.016Z,2.48
2019-03-09T04:29:27.359Z,2.50
2019-03-09T04:31:57.672Z,2.41
2019-03-09T04:34:28.440Z,2.39
2019-03-09T04:37:02.489Z,2.40
2019-03-09T04:39:33.377Z,2.37
2019-03-09T04:42:03.847Z,2.32
2019-03-09T04:44:34.117Z,2.36
2019-03-09T04:47:04.844Z,2.37
2019-03-09T04:49:38.883Z,2.39
2019-03-09T04:52:09.279Z,2.38
2019-03-09T04:54:39.991Z,2.37
2019-03-09T04:57:10.660Z,2.36
2019-03-09T04:59:41.106Z,2.36
2019-03-09T05:02:11.392Z,2.39
2019-03-09T05:04:44.270Z,2.38
2019-03-09T05:07:19.984Z,2.40
2019-03-09T05:10:13.809Z,2.49
2019-03-09T05:12:46.765Z,2.49
2019-03-09T05:15:17.323Z,2.48
2019-03-09T05:17:48.053Z,2.49
2019-03-09T05:20:18.478Z,2.48
2019-03-09T05:22:50.697Z,2.53
2019-03-09T05:25:21.408Z,2.55
2019-03-09T05:27:52.072Z,2.61
2019-03-09T05:30:47.912Z,2.65
2019-03-09T05:33:18.281Z,2.72
2019-03-09T05:35:49.061Z,2.85
2019-03-09T05:38:19.991Z,2.96
2019-03-09T05:40:50.328Z,3.07
2019-03-09T05:43:20.918Z,3.17
2019-03-09T05:45:51.704Z,3.30
2019-03-09T05:48:21.999Z,3.42
2019-03-09T05:50:52.256Z,3.51
2019-03-09T05:53:22.558Z,3.60
2019-03-09T05:55:52.788Z,3.73
2019-03-09T05:58:23.058Z,3.86
2019-03-09T06:00:53.278Z,3.97
2019-03-09T06:03:23.498Z,4.11
2019-03-09T06:05:54.796Z,4.19
2019-03-09T06:08:25.497Z,4.29
2019-03-09T06:10:56.214Z,4.36
2019-03-09T06:13:26.511Z,4.42
2019-03-09T06:15:56.778Z,4.48
2019-03-09T06:18:27.355Z,4.63
2019-03-09T06:20:58.007Z,4.78
2019-03-09T06:23:28.638Z,5.05
2019-03-09T06:25:58.957Z,5.33
2019-03-09T06:28:30.717Z,5.49
2019-03-09T06:31:02.500Z,5.58
2019-03-09T06:33:32.738Z,5.58
2019-03-09T06:36:12.453Z,5.58
2019-03-09T06:38:45.724Z,5.55
2019-03-09T06:41:28.083Z,5.52
2019-03-09T06:43:58.736Z,5.51
2019-03-09T06:46:29.342Z,5.53
2019-03-09T06:48:59.537Z,5.54
2019-03-09T06:51:29.791Z,5.51
2019-03-09T06:54:00.380Z,5.50
2019-03-09T06:56:30.680Z,5.52
2019-03-09T06:59:00.935Z,5.66
2019-03-09T07:01:32.461Z,5.84
2019-03-09T07:04:02.718Z,5.96
2019-03-09T07:06:33.328Z,6.16
2019-03-09T07:09:05.432Z,6.39
2019-03-09T07:11:37.349Z,6.56
2019-03-09T07:14:43.881Z,6.66
2019-03-09T07:17:14.437Z,6.81
2019-03-09T07:19:44.719Z,7.11
2019-03-09T07:22:15.391Z,7.42
2019-03-09T07:24:45.661Z,7.60
2019-03-09T07:27:16.447Z,7.82
2019-03-09T07:29:46.689Z,8.08
2019-03-09T07:32:16.927Z,8.47
2019-03-09T07:34:47.501Z,8.72
2019-03-09T07:37:17.840Z,9.05
2019-03-09T07:39:48.397Z,9.56
2019-03-09T07:42:19.030Z,10.06
2019-03-09T07:44:49.319Z,10.50
2019-03-09T07:47:19.562Z,10.99
2019-03-09T07:49:50.862Z,11.48
2019-03-09T07:52:35.399Z,11.58
2019-03-09T07:55:10.631Z,11.52
2019-03-09T07:57:40.964Z,11.48
2019-03-09T08:00:22.293Z,11.81
2019-03-09T08:02:52.911Z,11.90
2019-03-09T08:05:23.195Z,11.98
2019-03-09T08:07:53.779Z,11.75
2019-03-09T08:10:31.532Z,11.56
2019-03-09T08:13:01.951Z,11.44
2019-03-09T08:15:32.178Z,11.38
2019-03-09T08:18:02.712Z,11.33
2019-03-09T08:20:32.908Z,11.29
2019-03-09T08:23:03.582Z,11.31
2019-03-09T08:25:34.246Z,11.21
2019-03-09T08:28:04.926Z,11.29
2019-03-09T08:30:35.617Z,11.30
2019-03-09T08:33:06.416Z,11.23
2019-03-09T08:35:36.709Z,10.86
2019-03-09T08:38:06.977Z,10.54
2019-03-09T08:40:37.245Z,10.28
2019-03-09T08:43:07.528Z,10.13
2019-03-09T08:45:37.912Z,10.00
2019-03-09T08:48:08.507Z,9.97
2019-03-09T08:50:39.776Z,9.90
2019-03-09T08:53:10.416Z,9.83
2019-03-09T08:55:40.725Z,9.91
2019-03-09T08:58:11.299Z,9.98
2019-03-09T09:00:41.632Z,10.03
2019-03-09T09:03:11.824Z,10.28
2019-03-09T09:05:42.397Z,10.45
2019-03-09T09:08:12.691Z,10.53
2019-03-09T09:10:42.947Z,10.58
2019-03-09T09:13:13.637Z,10.56
2019-03-09T09:15:44.309Z,10.72
2019-03-09T09:18:14.991Z,10.87
2019-03-09T09:20:46.826Z,11.28
2019-03-09T09:23:17.197Z,12.25
2019-03-09T09:25:47.860Z,13.33
2019-03-09T09:28:18.434Z,14.62
2019-03-09T09:30:48.700Z,15.74
2019-03-09T09:33:19.245Z,16.64
2019-03-09T09:35:50.504Z,17.50
2019-03-09T09:38:20.806Z,18.10
2019-03-09T09:40:51.452Z,18.83
2019-03-09T09:43:22.154Z,18.93
2019-03-09T09:45:52.620Z,18.97
2019-03-09T09:48:22.960Z,19.12
2019-03-09T09:50:53.279Z,19.44
2019-03-09T09:53:27.036Z,19.86
2019-03-09T09:55:57.716Z,19.60
2019-03-09T09:58:28.006Z,19.70
2019-03-09T10:00:58.575Z,19.33
2019-03-09T10:03:29.094Z,18.63
2019-03-09T10:05:59.670Z,17.70
2019-03-09T10:08:29.947Z,16.84
2019-03-09T10:11:00.515Z,16.46
2019-03-09T10:13:32.573Z,15.86
2019-03-09T10:16:02.810Z,15.68
2019-03-09T10:18:33.418Z,16.40
2019-03-09T10:21:04.046Z,17.42
2019-03-09T10:23:34.340Z,17.72
2019-03-09T10:26:04.900Z,18.26
2019-03-09T10:28:35.311Z,18.47
2019-03-09T10:31:05.551Z,17.91
2019-03-09T10:33:35.763Z,17.21
2019-03-09T10:36:06.611Z,15.92
2019-03-09T10:38:37.287Z,15.02
2019-03-09T10:41:08.893Z,14.26
2019-03-09T10:43:39.524Z,13.78
2019-03-09T10:46:10.189Z,13.51
2019-03-09T10:48:42.980Z,13.37
2019-03-09T10:51:13.676Z,13.18
2019-03-09T10:53:44.035Z,13.11
2019-03-09T10:56:14.624Z,13.03
2019-03-09T10:58:45.249Z,12.96
2019-03-09T11:01:15.877Z,13.00
2019-03-09T11:03:46.417Z,13.04
2019-03-09T11:06:16.639Z,12.94
2019-03-09T11:08:47.218Z,12.84
2019-03-09T11:11:18.047Z,12.73
2019-03-09T11:13:51.830Z,12.68
2019-03-09T11:16:20.596Z,12.83
2019-03-09T11:18:50.887Z,12.91
2019-03-09T11:21:22.195Z,13.03
2019-03-09T11:23:54.062Z,12.96
2019-03-09T11:26:24.584Z,12.83
2019-03-09T11:28:55.184Z,12.75
2019-03-09T11:31:25.729Z,12.66
2019-03-09T11:33:55.946Z,12.59
2019-03-09T11:36:26.228Z,12.45
2019-03-09T11:38:56.791Z,12.43
2019-03-09T11:41:27.454Z,12.50
2019-03-09T11:43:57.856Z,12.68
2019-03-09T11:46:28.414Z,12.91
2019-03-09T11:48:58.703Z,12.96
2019-03-09T11:51:29.280Z,12.92
2019-03-09T11:53:59.587Z,12.80
2019-03-09T11:56:30.225Z,12.72
2019-03-09T11:59:00.879Z,12.64
2019-03-09T12:01:32.679Z,12.56
2019-03-09T12:04:04.330Z,12.52
2019-03-09T12:06:34.895Z,12.36
2019-03-09T12:09:06.446Z,12.16
2019-03-09T12:11:38.715Z,12.05
2019-03-09T12:14:09.069Z,12.01
2019-03-09T12:16:39.647Z,12.06
2019-03-09T12:19:10.786Z,12.00
2019-03-09T12:21:41.490Z,11.86
2019-03-09T12:24:16.734Z,11.82
2019-03-09T12:26:44.589Z,11.80
2019-03-09T12:29:14.899Z,11.75
2019-03-09T12:31:47.710Z,11.66
2019-03-09T12:34:18.404Z,11.58
2019-03-09T12:36:51.017Z,11.49
2019-03-09T12:39:21.322Z,11.45
2019-03-09T12:41:52.608Z,11.42
2019-03-09T12:44:23.647Z,11.42
2019-03-09T12:46:53.955Z,11.39
2019-03-09T12:49:24.690Z,11.32
2019-03-09T12:51:54.985Z,11.34
2019-03-09T12:54:25.276Z,11.16
2019-03-09T12:56:55.491Z,10.96
2019-03-09T12:59:26.198Z,10.88
2019-03-09T13:01:56.478Z,10.49
2019-03-09T13:04:27.045Z,9.97
2019-03-09T13:06:57.331Z,9.54
2019-03-09T13:09:27.879Z,9.08
2019-03-09T13:12:00.280Z,8.78
2019-03-09T13:14:30.681Z,8.58
2019-03-09T13:17:01.257Z,8.46
2019-03-09T13:19:31.909Z,8.20
2019-03-09T13:22:02.540Z,8.08
2019-03-09T13:24:33.022Z,8.04
2019-03-09T13:27:03.605Z,7.88
2019-03-09T13:29:34.229Z,7.77
2019-03-09T13:32:04.914Z,7.68
2019-03-09T13:34:35.226Z,7.70
2019-03-09T13:37:05.439Z,7.55
2019-03-09T13:39:35.737Z,7.39
2019-03-09T13:42:06.021Z,7.30
2019-03-09T13:44:36.711Z,7.10
2019-03-09T13:47:07.338Z,6.99
2019-03-09T13:49:38.009Z,6.89
2019-03-09T13:52:08.688Z,6.80
2019-03-09T13:54:39.334Z,6.86
2019-03-09T13:57:10.230Z,6.87
2019-03-09T13:59:40.868Z,6.85
2019-03-09T14:02:11.507Z,6.82
2019-03-09T14:04:41.863Z,6.75
2019-03-09T14:07:12.413Z,6.62
2019-03-09T14:09:43.265Z,6.60
2019-03-09T14:12:13.555Z,6.65
2019-03-09T14:14:44.331Z,6.68
2019-03-09T14:17:14.617Z,6.78
2019-03-09T14:19:45.185Z,6.95
2019-03-09T14:22:15.855Z,7.19
2019-03-09T14:24:46.152Z,7.32
2019-03-09T14:27:16.399Z,7.38
2019-03-09T14:29:46.625Z,7.48
2019-03-09T14:32:17.271Z,7.47
2019-03-09T14:34:47.922Z,7.59
2019-03-09T14:37:18.564Z,7.65
2019-03-09T14:39:51.814Z,7.70
2019-03-09T14:42:20.800Z,7.60
2019-03-09T14:44:51.368Z,7.56
2019-03-09T14:47:22.009Z,7.53
2019-03-09T14:49:52.694Z,7.57
2019-03-09T14:52:23.356Z,7.44
2019-03-09T14:54:54.015Z,7.36
2019-03-09T14:57:24.640Z,7.32
2019-03-09T14:59:54.937Z,7.21
2019-03-09T15:02:26.411Z,7.10
2019-03-09T15:04:57.145Z,6.95
2019-03-09T15:07:27.770Z,6.71
2019-03-09T15:09:58.421Z,6.42
2019-03-09T15:12:28.790Z,6.19
2019-03-09T15:14:59.370Z,5.91
2019-03-09T15:17:29.992Z,5.74
2019-03-09T15:20:00.324Z,5.60
2019-03-09T15:22:30.467Z,5.49
2019-03-09T15:25:01.035Z,5.33
2019-03-09T15:27:31.726Z,5.23
2019-03-09T15:30:02.347Z,5.11
2019-03-09T15:32:34.450Z,5.04
2019-03-09T15:35:07.907Z,5.03
2019-03-09T15:37:38.444Z,5.09
2019-03-09T15:40:17.470Z,5.08
2019-03-09T15:42:48.834Z,5.01
2019-03-09T15:45:21.884Z,5.01
2019-03-09T15:47:52.107Z,5.07
2019-03-09T15:50:24.099Z,5.00
2019-03-09T15:52:54.395Z,5.03
2019-03-09T15:55:24.604Z,5.08
2019-03-09T15:57:55.184Z,5.10
2019-03-09T16:00:26.307Z,5.17
2019-03-09T16:02:56.909Z,5.23
2019-03-09T16:05:27.493Z,5.30
2019-03-09T16:07:58.115Z,5.36
2019-03-09T16:10:28.837Z,5.48
2019-03-09T16:12:59.111Z,5.37
2019-03-09T16:15:29.718Z,5.26
2019-03-09T16:18:00.350Z,5.28
2019-03-09T16:20:31.449Z,5.20
2019-03-09T16:23:01.735Z,5.21
2019-03-09T16:25:31.940Z,5.09
2019-03-09T16:28:02.576Z,5.03
2019-03-09T16:30:33.271Z,4.93
2019-03-09T16:33:03.567Z,4.85
2019-03-09T16:35:34.948Z,4.83
2019-03-09T16:38:05.780Z,4.75
2019-03-09T16:40:40.717Z,4.73
2019-03-09T16:43:08.956Z,4.74
2019-03-09T16:45:39.178Z,4.73
2019-03-09T16:48:09.802Z,4.65
2019-03-09T16:50:40.085Z,4.59
2019-03-09T16:53:10.328Z,4.55
2019-03-09T16:55:40.907Z,4.44
2019-03-09T16:58:12.333Z,4.30
2019-03-09T17:00:42.923Z,4.16
2019-03-09T17:03:13.294Z,4.00
2019-03-09T17:05:44.000Z,3.87
2019-03-09T17:08:14.317Z,3.72
2019-03-09T17:10:44.731Z,3.64
2019-03-09T17:13:15.163Z,3.57
2019-03-09T17:15:45.688Z,3.46
2019-03-09T17:18:15.887Z,3.42
2019-03-09T17:20:46.480Z,3.39
2019-03-09T17:23:16.791Z,3.34
2019-03-09T17:25:47.102Z,3.33
2019-03-09T17:28:17.306Z,3.26
2019-03-09T17:30:47.525Z,3.22
2019-03-09T17:33:17.827Z,3.25
2019-03-09T17:35:48.053Z,3.29
2019-03-09T17:38:18.318Z,3.38
2019-03-09T17:40:48.538Z,3.43
2019-03-09T17:43:19.182Z,3.44
2019-03-09T17:45:49.803Z,3.46
2019-03-09T17:48:20.232Z,3.44
2019-03-09T17:50:50.875Z,3.44
2019-03-09T17:53:21.259Z,3.43
2019-03-09T17:55:51.502Z,3.40
2019-03-09T17:58:22.052Z,3.41
2019-03-09T18:00:52.681Z,3.46
2019-03-09T18:03:23.854Z,3.46
2019-03-09T18:05:54.114Z,3.50
2019-03-09T18:08:24.374Z,3.55
2019-03-09T18:11:10.598Z,3.50
2019-03-09T18:13:42.253Z,3.46
2019-03-09T18:16:12.534Z,3.50
2019-03-09T18:18:43.137Z,3.48
2019-03-09T18:21:13.442Z,3.54
2019-03-09T18:23:43.667Z,3.50
2019-03-09T18:26:13.901Z,3.46
2019-03-09T18:28:44.105Z,3.43
2019-03-09T18:31:14.805Z,3.47
2019-03-09T18:33:45.746Z,3.36
2019-03-09T18:36:16.048Z,3.33
2019-03-09T18:38:46.619Z,3.35
2019-03-09T18:41:17.247Z,3.36
2019-03-09T18:43:47.632Z,3.43
2019-03-09T18:46:17.901Z,3.51
2019-03-09T18:48:48.071Z,3.47
2019-03-09T18:51:18.635Z,3.57
2019-03-09T18:53:49.028Z,3.61
2019-03-09T18:56:19.319Z,3.64
2019-03-09T18:58:49.552Z,3.63
2019-03-09T19:01:19.761Z,3.63
2019-03-09T19:03:50.042Z,3.69
2019-03-09T19:06:20.243Z,3.62
2019-03-09T19:08:50.892Z,3.65
2019-03-09T19:11:21.232Z,3.60
2019-03-09T19:13:51.743Z,3.56
2019-03-09T19:16:22.041Z,3.52
2019-03-09T19:18:52.242Z,3.45
2019-03-09T19:21:22.590Z,3.42
2019-03-09T19:23:52.839Z,3.34
2019-03-09T19:26:23.096Z,3.29
2019-03-09T19:28:53.310Z,3.24
2019-03-09T19:31:23.542Z,3.22
2019-03-09T19:33:53.772Z,3.21
2019-03-09T19:36:24.183Z,3.18
2019-03-09T19:38:54.478Z,3.12
2019-03-09T19:41:25.078Z,3.12
2019-03-09T19:43:55.511Z,3.08
2019-03-09T19:46:26.296Z,3.06
2019-03-09T19:48:56.927Z,3.07
2019-03-09T19:51:28.231Z,3.03
2019-03-09T19:53:58.449Z,2.97
2019-03-09T19:56:28.713Z,2.99
2019-03-09T19:58:59.305Z,2.96
2019-03-09T20:01:30.126Z,2.92
2019-03-09T20:04:00.748Z,2.87
2019-03-09T20:06:31.015Z,2.89
2019-03-09T20:09:01.608Z,2.89
2019-03-09T20:11:33.908Z,2.91
2019-03-09T20:14:04.298Z,2.87
2019-03-09T20:16:34.900Z,2.89
2019-03-09T20:19:05.342Z,2.90
2019-03-09T20:21:36.872Z,2.96
2019-03-09T20:24:08.774Z,3.03
2019-03-09T20:26:39.012Z,3.11
2019-03-09T20:29:10.537Z,3.14
2019-03-09T20:31:41.187Z,3.22
2019-03-09T20:34:13.711Z,3.22
2019-03-09T20:36:44.011Z,3.28
2019-03-09T20:39:14.217Z,3.37
2019-03-09T20:41:45.003Z,3.44
2019-03-09T20:44:15.283Z,3.46
2019-03-09T20:46:45.521Z,3.50
2019-03-09T20:49:16.131Z,3.60
2019-03-09T20:51:46.751Z,3.72
2019-03-09T20:54:17.488Z,3.78
2019-03-09T20:56:48.081Z,3.78
2019-03-09T20:59:18.779Z,3.86
2019-03-09T21:01:49.441Z,3.85
2019-03-09T21:04:19.714Z,3.81
2019-03-09T21:06:50.267Z,3.84
2019-03-09T21:09:20.874Z,3.83
2019-03-09T21:11:51.156Z,3.83
2019-03-09T21:14:21.663Z,3.83
2019-03-09T21:16:52.221Z,3.90
2019-03-09T21:19:22.672Z,3.97
2019-03-09T21:21:52.924Z,4.05
2019-03-09T21:24:23.521Z,4.16
2019-03-09T21:26:54.175Z,4.30
2019-03-09T21:29:24.456Z,4.46
2019-03-09T21:31:55.052Z,4.55
2019-03-09T21:34:25.775Z,4.64
2019-03-09T21:36:56.416Z,4.76
2019-03-09T21:39:26.763Z,4.91
2019-03-09T21:41:56.937Z,5.01
2019-03-09T21:44:27.174Z,5.06
2019-03-09T21:46:57.935Z,5.06
2019-03-09T21:49:28.614Z,5.04
2019-03-09T21:51:59.316Z,4.98
2019-03-09T21:54:29.984Z,4.91
2019-03-09T21:57:00.285Z,4.81
2019-03-09T21:59:30.530Z,4.73
2019-03-09T22:02:01.092Z,4.62
2019-03-09T22:04:31.441Z,4.59
2019-03-09T22:07:01.648Z,4.68
2019-03-09T22:09:32.299Z,4.65
2019-03-09T22:12:02.584Z,4.61
2019-03-09T22:14:32.826Z,4.57
2019-03-09T22:17:03.392Z,4.59
2019-03-09T22:19:33.675Z,4.59
2019-03-09T22:22:04.354Z,4.63
2019-03-09T22:24:34.991Z,4.68
2019-03-09T22:27:05.623Z,4.77
2019-03-09T22:29:35.944Z,4.76
2019-03-09T22:32:06.507Z,4.74
2019-03-09T22:34:37.212Z,4.74
2019-03-09T22:37:07.515Z,4.80
2019-03-09T22:39:37.750Z,4.79
2019-03-09T22:42:08.427Z,4.78
2019-03-09T22:44:39.171Z,4.84
2019-03-09T22:47:11.823Z,4.82
2019-03-09T22:49:41.741Z,4.87
2019-03-09T22:52:12.036Z,4.90
2019-03-09T22:54:42.602Z,4.97
2019-03-09T22:57:12.879Z,5.01
2019-03-09T22:59:43.182Z,5.08
2019-03-09T23:02:14.473Z,5.09
2019-03-09T23:04:44.755Z,5.12
2019-03-09T23:07:16.301Z,5.17
2019-03-09T23:09:46.578Z,5.11
2019-03-09T23:12:16.871Z,5.15
2019-03-09T23:14:47.427Z,5.10
2019-03-09T23:17:17.753Z,5.12
2019-03-09T23:19:48.307Z,5.12
2019-03-09T23:22:18.953Z,5.11
2019-03-09T23:24:49.770Z,5.17
2019-03-09T23:27:20.062Z,5.22
2019-03-09T23:29:50.772Z,5.19
2019-03-09T23:32:21.402Z,5.23
2019-03-09T23:34:52.042Z,5.25
2019-03-09T23:37:22.319Z,5.27
2019-03-09T23:39:52.617Z,5.31
2019-03-09T23:42:22.905Z,5.34
2019-03-09T23:44:53.692Z,5.36
2019-03-09T23:47:24.285Z,5.38
2019-03-09T23:49:54.986Z,5.37
2019-03-09T23:52:25.613Z,5.41
2019-03-09T23:54:56.291Z,5.43
2019-03-09T23:57:26.567Z,5.39
2019-03-09T23:59:57.160Z,5.38
